createdAt,value
2019-05-12T00:01:18.522Z,9.43
2019-05-12T00:03:48.507Z,5.72
2019-05-12T00:06:19.126Z,7.37
2019-05-12T00:08:49.676Z,9.05
2019-05-12T00:11:20.112Z,9.20
2019-05-12T00:13:50.686Z,12.58
2019-05-12T00:16:21.107Z,11.00
2019-05-12T00:18:51.554Z,10.48
2019-05-12T00:21:22.315Z,10.85
2019-05-12T00:24:10.425Z,10.65
2019-05-12T00:26:41.774Z,7.25
2019-05-12T00:29:13.821Z,10.60
2019-05-12T00:31:47.611Z,11.65
2019-05-12T00:34:18.437Z,10.80
2019-05-12T00:36:49.166Z,11.73
2019-05-12T00:39:19.679Z,9.83
2019-05-12T00:41:50.285Z,10.20
2019-05-12T00:44:20.698Z,8.58
2019-05-12T00:46:51.487Z,13.03
2019-05-12T00:49:22.904Z,9.90
2019-05-12T00:51:53.410Z,10.35
2019-05-12T00:54:24.140Z,11.97
2019-05-12T00:56:54.731Z,14.68
2019-05-12T00:59:27.801Z,10.38
2019-05-12T01:01:58.639Z,13.25
2019-05-12T01:04:29.356Z,15.98
2019-05-12T01:07:01.014Z,10.13
2019-05-12T01:09:31.433Z,14.98
2019-05-12T01:12:01.898Z,12.33
2019-05-12T01:14:32.477Z,9.83
2019-05-12T01:17:03.818Z,11.30
2019-05-12T01:19:34.207Z,10.48
2019-05-12T01:22:04.582Z,15.25
2019-05-12T01:24:35.096Z,10.03
2019-05-12T01:27:05.594Z,8.38
2019-05-12T01:29:38.420Z,13.68
2019-05-12T01:32:25.212Z,11.57
2019-05-12T01:34:57.781Z,17.12
2019-05-12T01:37:28.629Z,17.30
2019-05-12T01:40:00.100Z,16.23
2019-05-12T01:42:30.990Z,14.50
2019-05-12T01:45:01.546Z,16.25
2019-05-12T01:47:32.253Z,21.48
2019-05-12T01:50:02.702Z,16.25
2019-05-12T01:52:33.049Z,17.07
2019-05-12T01:55:03.482Z,21.15
2019-05-12T01:57:34.019Z,21.35
2019-05-12T02:00:05.202Z,13.78
2019-05-12T02:02:35.601Z,20.08
2019-05-12T02:05:08.666Z,18.00
2019-05-12T02:07:44.194Z,21.07
2019-05-12T02:10:14.926Z,21.15
2019-05-12T02:12:45.336Z,17.98
2019-05-12T02:15:18.444Z,22.05
2019-05-12T02:17:48.849Z,27.32
2019-05-12T02:20:19.795Z,20.85
2019-05-12T02:22:50.181Z,21.20
2019-05-12T02:25:20.886Z,18.62
2019-05-12T02:27:51.300Z,19.85
2019-05-12T02:30:22.167Z,23.07
2019-05-12T02:32:58.149Z,21.75
2019-05-12T02:35:24.867Z,19.87
2019-05-12T02:37:55.643Z,30.75
2019-05-12T02:40:25.990Z,21.95
2019-05-12T02:42:58.564Z,33.25
2019-05-12T02:45:29.373Z,24.37
2019-05-12T02:47:59.833Z,28.27
2019-05-12T02:50:36.075Z,24.43
2019-05-12T02:53:07.197Z,22.73
2019-05-12T02:55:37.977Z,33.13
2019-05-12T02:58:08.415Z,29.72
2019-05-12T03:00:39.532Z,26.45
2019-05-12T03:03:09.953Z,32.08
2019-05-12T03:05:44.219Z,34.55
2019-05-12T03:08:15.272Z,27.93
2019-05-12T03:10:49.072Z,30.45
2019-05-12T03:13:19.480Z,34.60
2019-05-12T03:15:50.090Z,32.70
2019-05-12T03:18:20.413Z,30.17
2019-05-12T03:20:50.817Z,29.15
2019-05-12T03:23:21.148Z,25.72
2019-05-12T03:25:54.628Z,27.05
2019-05-12T03:28:25.705Z,35.90
2019-05-12T03:30:57.971Z,30.90
2019-05-12T03:33:36.041Z,34.65
2019-05-12T03:36:01.520Z,33.67
2019-05-12T03:38:35.711Z,29.77
2019-05-12T03:41:05.464Z,33.05
2019-05-12T03:43:35.933Z,34.08
2019-05-12T03:46:07.249Z,30.97
2019-05-12T03:48:37.612Z,29.80
2019-05-12T03:51:07.952Z,29.92
2019-05-12T03:53:38.378Z,33.78
2019-05-12T03:56:08.790Z,31.77
2019-05-12T03:58:39.189Z,27.10
2019-05-12T04:01:09.484Z,38.40
2019-05-12T04:03:40.416Z,27.67
2019-05-12T04:06:10.774Z,33.75
2019-05-12T04:08:41.156Z,38.33
2019-05-12T04:11:14.319Z,31.57
2019-05-12T04:13:45.186Z,33.05
2019-05-12T04:16:16.323Z,32.38
2019-05-12T04:18:47.049Z,28.32
2019-05-12T04:21:17.613Z,35.13
2019-05-12T04:23:48.139Z,38.33
2019-05-12T04:26:18.466Z,35.63
2019-05-12T04:28:49.052Z,29.48
2019-05-12T04:31:19.399Z,35.10
2019-05-12T04:33:50.761Z,34.58
2019-05-12T04:36:21.091Z,33.70
2019-05-12T04:38:55.343Z,28.75
2019-05-12T04:41:26.011Z,30.57
2019-05-12T04:43:56.754Z,26.33
2019-05-12T04:46:27.309Z,27.62
2019-05-12T04:48:57.707Z,26.60
2019-05-12T04:51:28.154Z,28.80
2019-05-12T04:53:59.276Z,26.73
2019-05-12T04:56:29.697Z,23.67
2019-05-12T04:59:04.703Z,24.72
2019-05-12T05:01:34.590Z,28.62
2019-05-12T05:04:06.068Z,22.70
2019-05-12T05:06:36.794Z,21.95
2019-05-12T05:09:08.339Z,22.20
2019-05-12T05:11:39.160Z,23.90
2019-05-12T05:14:09.573Z,24.90
2019-05-12T05:16:40.053Z,20.97
2019-05-12T05:19:10.554Z,28.38
2019-05-12T05:21:40.944Z,27.02
2019-05-12T05:24:11.359Z,18.37
2019-05-12T05:26:43.619Z,21.57
2019-05-12T05:29:14.397Z,18.17
2019-05-12T05:31:45.904Z,24.47
2019-05-12T05:34:16.808Z,14.90
2019-05-12T05:36:51.139Z,31.97
2019-05-12T05:39:19.380Z,16.52
2019-05-12T05:41:51.135Z,19.57
2019-05-12T05:44:23.850Z,15.70
2019-05-12T05:46:56.125Z,16.17
2019-05-12T05:49:25.831Z,19.05
2019-05-12T05:51:57.591Z,20.70
2019-05-12T05:54:31.200Z,16.62
2019-05-12T05:57:02.962Z,21.90
2019-05-12T05:59:36.554Z,17.80
2019-05-12T06:02:05.045Z,14.73
2019-05-12T06:04:39.168Z,15.60
2019-05-12T06:07:07.744Z,10.40
2019-05-12T06:09:38.170Z,11.20
2019-05-12T06:12:10.127Z,13.75
2019-05-12T06:14:41.112Z,17.32
2019-05-12T06:17:11.714Z,16.23
2019-05-12T06:19:43.806Z,16.07
2019-05-12T06:22:18.420Z,11.83
2019-05-12T06:24:49.174Z,11.75
2019-05-12T06:27:21.101Z,12.18
2019-05-12T06:30:00.420Z,12.82
2019-05-12T06:32:25.135Z,18.20
2019-05-12T06:34:57.176Z,9.68
2019-05-12T06:37:27.618Z,9.35
2019-05-12T06:40:00.517Z,11.20
2019-05-12T06:42:30.289Z,10.82
2019-05-12T06:45:00.802Z,11.12
2019-05-12T06:47:34.144Z,15.10
2019-05-12T06:50:04.139Z,14.78
2019-05-12T06:52:38.585Z,13.20
2019-05-12T06:55:06.993Z,14.73
2019-05-12T06:57:40.125Z,16.52
2019-05-12T07:00:09.536Z,9.88
2019-05-12T07:02:49.209Z,14.40
2019-05-12T07:05:14.449Z,7.35
2019-05-12T07:07:46.127Z,8.20
2019-05-12T07:10:35.584Z,6.30
2019-05-12T07:12:58.963Z,12.05
2019-05-12T07:15:20.529Z,7.10
2019-05-12T07:17:58.928Z,10.43
2019-05-12T07:20:35.655Z,10.35
2019-05-12T07:23:04.002Z,11.57
2019-05-12T07:25:36.651Z,12.50
2019-05-12T07:28:07.753Z,8.88
2019-05-12T07:30:37.919Z,9.35
2019-05-12T07:33:08.337Z,8.75
2019-05-12T07:35:40.384Z,8.20
2019-05-12T07:38:12.218Z,7.72
2019-05-12T07:40:44.560Z,7.72
2019-05-12T07:43:20.346Z,12.05
2019-05-12T07:45:56.673Z,7.85
2019-05-12T07:48:23.176Z,7.42
2019-05-12T07:50:56.383Z,6.35
2019-05-12T07:53:25.607Z,13.10
2019-05-12T07:55:56.153Z,10.18
2019-05-12T07:58:26.596Z,6.58
2019-05-12T08:01:02.572Z,7.05
2019-05-12T08:03:29.086Z,7.83
2019-05-12T08:06:01.756Z,13.00
2019-05-12T08:08:33.848Z,6.65
2019-05-12T08:11:04.382Z,7.90
2019-05-12T08:13:38.710Z,6.67
2019-05-12T08:16:07.383Z,6.37
2019-05-12T08:18:40.917Z,6.22
2019-05-12T08:21:10.089Z,7.55
2019-05-12T08:23:40.637Z,7.55
2019-05-12T08:26:16.235Z,4.90
2019-05-12T08:28:44.240Z,7.00
2019-05-12T08:31:14.799Z,9.60
2019-05-12T08:33:45.122Z,10.47
2019-05-12T08:36:16.519Z,4.67
2019-05-12T08:38:47.412Z,4.72
2019-05-12T08:41:17.713Z,8.45
2019-05-12T08:43:53.157Z,4.83
2019-05-12T08:46:24.108Z,6.95
2019-05-12T08:48:59.343Z,9.63
2019-05-12T08:51:25.460Z,5.42
2019-05-12T08:54:02.422Z,3.90
2019-05-12T08:56:27.813Z,5.35
2019-05-12T08:58:58.161Z,4.12
2019-05-12T09:01:30.723Z,5.08
2019-05-12T09:04:06.619Z,7.47
2019-05-12T09:06:34.295Z,3.58
2019-05-12T09:09:07.329Z,5.60
2019-05-12T09:11:37.718Z,4.37
2019-05-12T09:14:08.066Z,7.22
2019-05-12T09:16:38.824Z,7.92
2019-05-12T09:19:15.464Z,3.70
2019-05-12T09:21:44.215Z,7.47
2019-05-12T09:24:22.079Z,4.45
2019-05-12T09:26:46.621Z,4.30
2019-05-12T09:29:17.475Z,4.50
2019-05-12T09:31:50.547Z,5.17
2019-05-12T09:34:20.054Z,7.60
2019-05-12T09:36:51.959Z,4.28
2019-05-12T09:39:23.480Z,9.15
2019-05-12T09:41:55.338Z,5.35
2019-05-12T09:44:30.257Z,5.78
2019-05-12T09:46:58.790Z,2.95
2019-05-12T09:49:38.630Z,8.20
2019-05-12T09:52:03.565Z,7.80
2019-05-12T09:54:39.951Z,5.27
2019-05-12T09:57:05.341Z,4.00
2019-05-12T09:59:35.733Z,3.63
2019-05-12T10:02:10.683Z,5.80
2019-05-12T10:04:38.205Z,9.50
2019-05-12T10:07:08.669Z,4.90
2019-05-12T10:09:39.426Z,11.60
2019-05-12T10:12:10.034Z,5.07
2019-05-12T10:14:45.661Z,5.37
2019-05-12T10:17:14.217Z,4.92
2019-05-12T10:19:48.375Z,3.97
2019-05-12T10:22:17.965Z,8.07
2019-05-12T10:24:57.745Z,4.33
2019-05-12T10:27:21.175Z,6.67
2019-05-12T10:29:54.239Z,4.47
2019-05-12T10:32:24.761Z,4.58
2019-05-12T10:34:55.152Z,5.00
2019-05-12T10:37:29.293Z,3.90
2019-05-12T10:39:57.698Z,3.80
2019-05-12T10:42:28.372Z,6.95
2019-05-12T10:44:58.773Z,5.55
2019-05-12T10:47:29.394Z,4.00
2019-05-12T10:49:59.816Z,5.62
2019-05-12T10:52:35.092Z,6.23
2019-05-12T10:55:04.326Z,5.70
2019-05-12T10:57:34.476Z,4.17
2019-05-12T11:00:06.373Z,4.50
2019-05-12T11:02:36.870Z,7.90
2019-05-12T11:05:12.449Z,5.13
2019-05-12T11:07:40.704Z,4.95
2019-05-12T11:10:16.286Z,5.23
2019-05-12T11:12:44.155Z,2.80
2019-05-12T11:15:14.614Z,8.43
2019-05-12T11:18:04.520Z,8.10
2019-05-12T11:20:34.915Z,4.65
2019-05-12T11:23:05.546Z,4.63
2019-05-12T11:25:35.898Z,6.40
2019-05-12T11:28:07.140Z,4.50
2019-05-12T11:30:37.517Z,4.23
2019-05-12T11:33:07.929Z,4.00
2019-05-12T11:35:38.536Z,4.53
2019-05-12T11:38:08.871Z,4.63
2019-05-12T11:40:39.180Z,3.70
2019-05-12T11:43:09.604Z,6.40
2019-05-12T11:45:40.288Z,4.13
2019-05-12T11:48:10.753Z,3.80
2019-05-12T11:50:49.442Z,5.50
2019-05-12T11:53:13.959Z,3.90
2019-05-12T11:55:44.375Z,3.33
2019-05-12T11:58:14.837Z,6.33
2019-05-12T12:00:48.313Z,3.30
2019-05-12T12:03:18.748Z,4.97
2019-05-12T12:05:49.233Z,4.00
2019-05-12T12:08:19.866Z,3.73
2019-05-12T12:10:50.298Z,4.10
2019-05-12T12:13:25.681Z,3.90
2019-05-12T12:15:53.009Z,5.40
2019-05-12T12:18:23.697Z,7.10
2019-05-12T12:21:02.614Z,4.42
2019-05-12T12:23:27.456Z,2.92
2019-05-12T12:25:58.077Z,3.87
2019-05-12T12:28:28.387Z,2.37
2019-05-12T12:31:00.807Z,9.30
2019-05-12T12:33:35.710Z,3.00
2019-05-12T12:36:04.122Z,4.27
2019-05-12T12:38:35.021Z,4.73
2019-05-12T12:41:05.647Z,5.70
2019-05-12T12:43:37.255Z,2.73
2019-05-12T12:46:18.295Z,4.47
2019-05-12T12:48:45.071Z,2.10
2019-05-12T12:51:17.557Z,3.73
2019-05-12T12:53:47.772Z,2.60
2019-05-12T12:56:27.678Z,2.50
2019-05-12T12:58:50.363Z,4.97
2019-05-12T13:01:26.888Z,2.30
2019-05-12T13:03:53.723Z,2.20
2019-05-12T13:06:24.174Z,2.17
2019-05-12T13:08:54.901Z,3.80
2019-05-12T13:11:33.112Z,3.10
2019-05-12T13:13:59.188Z,2.80
2019-05-12T13:16:29.621Z,5.03
2019-05-12T13:19:03.855Z,3.93
2019-05-12T13:21:33.628Z,4.23
2019-05-12T13:24:04.279Z,2.40
2019-05-12T13:26:34.760Z,4.80
2019-05-12T13:29:05.364Z,3.57
2019-05-12T13:31:35.795Z,2.37
2019-05-12T13:34:06.143Z,2.70
2019-05-12T13:36:39.229Z,2.30
2019-05-12T13:39:11.478Z,2.90
2019-05-12T13:41:43.609Z,1.90
2019-05-12T13:44:13.866Z,3.73
2019-05-12T13:46:48.784Z,2.17
2019-05-12T13:49:16.847Z,1.93
2019-05-12T13:51:48.488Z,2.00
2019-05-12T13:54:24.873Z,2.33
2019-05-12T13:56:53.522Z,2.33
2019-05-12T14:00:08.697Z,8.07
2019-05-12T14:03:07.763Z,2.00
2019-05-12T14:06:03.597Z,3.43
2019-05-12T14:08:34.378Z,2.00
2019-05-12T14:11:07.506Z,2.33
2019-05-12T14:13:39.028Z,1.50
2019-05-12T14:16:09.601Z,3.50
2019-05-12T14:19:04.354Z,3.07
2019-05-12T14:21:41.229Z,2.57
2019-05-12T14:24:06.898Z,2.60
2019-05-12T14:27:04.725Z,1.83
2019-05-12T14:29:35.409Z,2.00
2019-05-12T14:32:06.017Z,1.67
2019-05-12T14:34:37.718Z,1.60
2019-05-12T14:37:10.407Z,1.40
2019-05-12T14:39:44.996Z,3.50
2019-05-12T14:42:13.575Z,7.83
2019-05-12T14:45:04.756Z,4.63
2019-05-12T14:48:05.855Z,1.50
2019-05-12T14:50:35.930Z,1.70
2019-05-12T14:53:06.408Z,3.10
2019-05-12T14:55:36.856Z,1.40
2019-05-12T14:58:09.260Z,1.77
2019-05-12T15:00:39.530Z,1.53
2019-05-12T15:03:15.633Z,1.47
2019-05-12T15:05:47.405Z,2.33
2019-05-12T15:08:20.697Z,1.40
2019-05-12T15:10:47.146Z,2.57
2019-05-12T15:13:17.625Z,2.20
2019-05-12T15:15:50.045Z,1.67
2019-05-12T15:18:20.274Z,1.20
2019-05-12T15:20:51.702Z,5.93
2019-05-12T15:23:23.968Z,3.27
2019-05-12T15:25:54.810Z,3.23
2019-05-12T15:28:25.198Z,1.40
2019-05-12T15:30:55.671Z,1.40
2019-05-12T15:33:26.177Z,1.50
2019-05-12T15:35:56.646Z,4.13
2019-05-12T15:38:27.322Z,1.20
2019-05-12T15:40:57.910Z,1.33
2019-05-12T15:43:28.325Z,1.83
2019-05-12T15:45:59.704Z,1.43
2019-05-12T15:48:34.037Z,2.70
2019-05-12T15:51:06.990Z,1.90
2019-05-12T15:53:36.038Z,2.10
2019-05-12T15:56:15.013Z,1.37
2019-05-12T15:58:38.887Z,1.93
2019-05-12T16:01:09.340Z,1.20
2019-05-12T16:03:39.724Z,1.90
2019-05-12T16:06:14.606Z,3.30
2019-05-12T16:08:42.939Z,1.77
2019-05-12T16:11:14.040Z,3.87
2019-05-12T16:13:53.731Z,1.60
2019-05-12T16:16:17.188Z,2.67
2019-05-12T16:18:50.657Z,1.47
2019-05-12T16:21:20.017Z,2.33
2019-05-12T16:23:50.545Z,1.20
2019-05-12T16:26:20.933Z,5.67
2019-05-12T16:28:54.072Z,2.30
2019-05-12T16:31:23.773Z,3.67
2019-05-12T16:34:01.049Z,2.70
2019-05-12T16:36:26.502Z,2.07
2019-05-12T16:39:00.153Z,1.97
2019-05-12T16:56:14.567Z,1.30
2019-05-12T16:58:44.050Z,3.73
2019-05-12T17:01:14.654Z,5.80
2019-05-12T17:03:45.488Z,2.17
2019-05-12T17:06:20.415Z,2.80
2019-05-12T17:08:49.881Z,1.63
2019-05-12T17:11:27.256Z,5.17
2019-05-12T17:13:56.855Z,1.43
2019-05-12T17:16:24.391Z,3.33
2019-05-12T17:18:59.942Z,4.73
2019-05-12T17:21:27.542Z,1.20
2019-05-12T17:23:57.844Z,2.57
2019-05-12T17:26:28.280Z,1.13
2019-05-12T17:29:01.488Z,1.40
2019-05-12T17:31:30.832Z,2.93
2019-05-12T17:34:06.565Z,1.20
2019-05-12T17:36:34.290Z,1.40
2019-05-12T17:39:07.707Z,1.10
2019-05-12T17:41:45.015Z,1.20
2019-05-12T17:44:10.223Z,3.03
2019-05-12T17:46:40.613Z,1.20
2019-05-12T17:49:15.799Z,1.30
2019-05-12T17:51:43.601Z,1.67
2019-05-12T17:54:21.481Z,1.30
2019-05-12T17:56:46.849Z,2.85
2019-05-12T17:59:27.222Z,10.58
2019-05-12T18:01:50.075Z,1.50
2019-05-12T18:04:25.661Z,2.13
2019-05-12T18:06:53.443Z,1.63
2019-05-12T18:09:25.249Z,1.50
2019-05-12T18:11:56.397Z,1.60
2019-05-12T18:14:27.937Z,4.13
2019-05-12T18:17:08.315Z,1.30
2019-05-12T18:19:33.722Z,2.37
2019-05-12T18:22:09.068Z,2.30
2019-05-12T18:24:35.826Z,4.10
2019-05-12T18:27:07.795Z,1.72
2019-05-12T18:29:38.408Z,1.80
2019-05-12T18:32:09.145Z,1.50
2019-05-12T18:34:39.462Z,1.82
2019-05-12T18:37:09.978Z,1.90
2019-05-12T18:39:40.730Z,1.20
2019-05-12T18:42:11.235Z,1.60
2019-05-12T18:44:43.879Z,1.40
2019-05-12T18:47:16.977Z,1.20
2019-05-12T18:49:47.756Z,1.30
2019-05-12T18:52:18.676Z,2.35
2019-05-12T18:54:53.260Z,1.62
2019-05-12T18:57:23.751Z,4.22
2019-05-12T18:59:59.741Z,2.77
2019-05-12T19:02:28.503Z,3.10
2019-05-12T19:04:59.333Z,4.33
2019-05-12T19:07:39.768Z,3.15
2019-05-12T19:10:03.787Z,1.50
2019-05-12T19:12:35.613Z,1.10
2019-05-12T19:15:10.341Z,3.37
2019-05-12T19:17:40.831Z,1.50
2019-05-12T19:20:13.455Z,1.50
2019-05-12T19:22:48.295Z,1.20
2019-05-12T19:25:19.158Z,1.47
2019-05-12T19:27:55.174Z,1.47
2019-05-12T19:30:25.189Z,2.12
2019-05-12T19:32:54.834Z,1.62
2019-05-12T19:35:25.016Z,1.50
2019-05-12T19:37:55.425Z,6.10
2019-05-12T19:40:25.802Z,1.75
2019-05-12T19:43:03.532Z,3.30
2019-05-12T19:45:28.637Z,2.22
2019-05-12T19:47:59.236Z,1.92
2019-05-12T19:50:29.570Z,2.35
2019-05-12T19:53:00.275Z,1.37
2019-05-12T19:55:33.743Z,1.60
2019-05-12T19:58:11.114Z,2.67
2019-05-12T20:00:36.140Z,2.85
2019-05-12T20:03:08.597Z,5.37
2019-05-12T20:05:39.308Z,1.98
2019-05-12T20:08:09.767Z,1.42
2019-05-12T20:10:44.788Z,1.22
2019-05-12T20:13:13.695Z,2.65
2019-05-12T20:15:44.633Z,1.25
2019-05-12T20:18:15.033Z,2.33
2019-05-12T20:20:47.063Z,1.70
2019-05-12T20:23:17.394Z,2.37
2019-05-12T20:25:47.772Z,1.50
2019-05-12T20:28:18.119Z,1.75
2019-05-12T20:30:54.389Z,2.30
2019-05-12T20:33:20.763Z,1.27
2019-05-12T20:35:51.085Z,1.50
2019-05-12T20:38:25.501Z,1.30
2019-05-12T20:40:54.183Z,1.20
2019-05-12T20:43:32.219Z,1.30
2019-05-12T20:45:56.745Z,2.50
2019-05-12T20:48:31.108Z,1.10
2019-05-12T20:50:59.320Z,1.22
2019-05-12T20:53:32.026Z,2.85
2019-05-12T20:56:03.698Z,2.45
2019-05-12T20:58:40.931Z,3.62
2019-05-12T21:01:05.853Z,1.73
2019-05-12T21:03:39.828Z,2.00
2019-05-12T21:06:08.492Z,2.02
2019-05-12T21:08:38.891Z,1.47
2019-05-12T21:11:09.530Z,1.82
2019-05-12T21:13:40.005Z,1.82
2019-05-12T21:16:17.431Z,2.45
2019-05-12T21:18:47.783Z,1.92
2019-05-12T21:21:15.522Z,1.30
2019-05-12T21:23:53.730Z,1.50
2019-05-12T21:26:18.591Z,2.20
2019-05-12T21:28:49.001Z,2.83
2019-05-12T21:31:20.596Z,2.08
2019-05-12T21:33:53.425Z,1.50
2019-05-12T21:36:26.802Z,1.20
2019-05-12T21:38:59.541Z,1.70
2019-05-12T21:41:28.038Z,2.37
2019-05-12T21:44:00.153Z,1.15
2019-05-12T21:46:30.664Z,1.82
2019-05-12T21:49:09.866Z,3.05
2019-05-12T21:51:34.023Z,1.50
2019-05-12T21:54:06.545Z,1.27
2019-05-12T21:56:43.823Z,1.40
2019-05-12T22:02:46.314Z,1.67
2019-05-12T22:05:23.800Z,1.98
2019-05-12T22:07:48.990Z,1.40
2019-05-12T22:10:25.255Z,3.50
2019-05-12T22:12:53.353Z,3.90
2019-05-12T22:15:24.843Z,2.77
2019-05-12T22:18:04.281Z,2.00
2019-05-12T22:20:34.552Z,2.17
2019-05-12T22:23:10.210Z,2.47
2019-05-12T22:25:38.192Z,1.30
2019-05-12T22:28:10.417Z,1.75
2019-05-12T22:30:40.725Z,1.80
2019-05-12T22:33:13.555Z,1.30
2019-05-12T22:35:44.469Z,1.27
2019-05-12T22:38:20.668Z,6.17
2019-05-12T22:40:49.313Z,1.30
2019-05-12T22:43:19.797Z,1.42
2019-05-12T22:45:50.104Z,1.50
2019-05-12T22:48:20.675Z,1.20
2019-05-12T22:50:51.434Z,1.85
2019-05-12T22:53:25.768Z,1.30
2019-05-12T22:55:54.602Z,1.30
2019-05-12T22:58:25.594Z,1.40
2019-05-12T23:01:01.352Z,1.40
2019-05-12T23:03:29.826Z,2.52
2019-05-12T23:06:01.686Z,2.10
2019-05-12T23:08:33.411Z,1.55
2019-05-12T23:11:04.203Z,1.20
2019-05-12T23:13:38.492Z,1.35
2019-05-12T23:16:06.632Z,2.27
2019-05-12T23:18:37.072Z,2.75
2019-05-12T23:21:13.285Z,1.40
2019-05-12T23:23:39.633Z,1.85
2019-05-12T23:26:10.229Z,1.47
2019-05-12T23:28:46.031Z,2.95
2019-05-12T23:31:13.421Z,7.35
2019-05-12T23:33:45.060Z,1.95
2019-05-12T23:36:19.644Z,1.20
2019-05-12T23:38:54.238Z,2.90
2019-05-12T23:41:19.766Z,1.32
2019-05-12T23:43:50.300Z,1.90
2019-05-12T23:46:20.640Z,1.42
2019-05-12T23:48:50.914Z,2.92
2019-05-12T23:51:23.497Z,1.22
2019-05-12T23:53:53.440Z,1.60
2019-05-12T23:56:23.829Z,1.30
2019-05-12T23:58:54.609Z,2.98
